Time;durP1;ratioP1;P1;durP2;ratioP2;P2;SDS_P1;SDS_P2;PMS_P1;PMS_P2;Temp;Humidity;BMP_temperature;BMP_pressure;BME280_temperature;BME280_humidity;BME280_pressure;Samples;Min_cycle;Max_cycle;Signal;HPM_P1;HPM_P2
2022/10/20 00:00:40;;;;;;;444.23;415.97;;;13.00;36.60;;;;;;4973712;28;20181;-71
2022/10/20 00:03:05;;;;;;;559.77;521.40;;;12.90;36.90;;;;;;4973249;28;20267;-72
2022/10/20 00:05:31;;;;;;;501.37;467.40;;;13.00;37.00;;;;;;4973788;28;20508;-71
2022/10/20 00:07:56;;;;;;;498.47;464.57;;;13.00;37.10;;;;;;4973346;28;20175;-72
2022/10/20 00:10:22;;;;;;;491.23;458.30;;;13.00;37.20;;;;;;4973342;28;20254;-72
2022/10/20 00:12:47;;;;;;;667.53;619.13;;;13.10;36.50;;;;;;4973219;28;20268;-71
2022/10/20 00:15:13;;;;;;;542.60;506.37;;;13.10;36.40;;;;;;4973364;28;20187;-71
2022/10/20 00:17:38;;;;;;;588.40;549.50;;;13.20;36.50;;;;;;4972462;28;20184;-72
2022/10/20 00:20:04;;;;;;;648.13;598.93;;;13.20;36.30;;;;;;4973270;28;20223;-71
2022/10/20 00:22:31;;;;;;;563.77;528.83;;;13.20;35.80;;;;;;4973009;28;20553;-71
2022/10/20 00:24:56;;;;;;;470.27;443.13;;;13.20;35.90;;;;;;4971854;28;20477;-71
2022/10/20 00:27:22;;;;;;;405.03;377.17;;;13.20;36.10;;;;;;4973291;28;20443;-70
2022/10/20 00:29:48;;;;;;;471.27;439.27;;;13.20;36.20;;;;;;4973637;28;20221;-69
2022/10/20 00:32:14;;;;;;;740.80;687.40;;;13.30;35.80;;;;;;4973457;28;20173;-70
2022/10/20 00:34:40;;;;;;;453.70;425.60;;;13.30;35.20;;;;;;4972582;28;20575;-71
2022/10/20 00:37:05;;;;;;;339.87;316.40;;;13.30;35.50;;;;;;4973211;28;20951;-71
2022/10/20 00:39:31;;;;;;;487.60;455.10;;;13.30;35.40;;;;;;4973051;28;20200;-71
2022/10/20 00:41:56;;;;;;;537.30;499.87;;;13.20;35.40;;;;;;4972677;28;20224;-70
2022/10/20 00:44:46;;;;;;;463.07;431.30;;;13.20;35.10;;;;;;4973008;28;20539;-71
2022/10/20 00:47:16;;;;;;;241.00;224.47;;;13.20;35.00;;;;;;4973134;28;20212;-70
2022/10/20 00:49:42;;;;;;;292.53;272.30;;;13.10;35.80;;;;;;4973058;28;20460;-71
2022/10/20 00:52:09;;;;;;;430.47;403.87;;;13.10;36.00;;;;;;4972754;28;21235;-71
2022/10/20 00:54:35;;;;;;;612.77;569.33;;;13.20;35.70;;;;;;4972943;28;20499;-70
2022/10/20 00:57:01;;;;;;;537.73;498.40;;;13.10;35.80;;;;;;4972134;28;20528;-70
2022/10/20 00:59:32;;;;;;;613.17;573.77;;;13.10;36.10;;;;;;4973530;28;20522;-69
2022/10/20 01:01:59;;;;;;;510.87;474.17;;;13.10;36.20;;;;;;4972586;28;20189;-70
2022/10/20 01:04:28;;;;;;;411.87;383.73;;;13.10;36.70;;;;;;4972930;28;20470;-70
2022/10/20 01:06:54;;;;;;;555.57;518.97;;;13.00;36.80;;;;;;4972781;28;20463;-70
2022/10/20 01:09:20;;;;;;;448.47;416.70;;;13.00;36.70;;;;;;4972600;28;20436;-71
2022/10/20 01:12:21;;;;;;;293.63;272.90;;;13.10;36.40;;;;;;4972528;28;20420;-70
2022/10/20 01:15:06;;;;;;;551.83;514.53;;;13.10;37.00;;;;;;4963971;28;20195;-72
2022/10/20 01:17:58;;;;;;;325.80;305.77;;;13.10;36.20;;;;;;4972816;28;20422;-71
2022/10/20 01:20:37;;;;;;;590.57;548.17;;;13.00;37.30;;;;;;4972770;28;20419;-70
2022/10/20 01:23:30;;;;;;;314.03;294.30;;;13.10;36.30;;;;;;4972556;28;20415;-71
2022/10/20 01:26:40;;;;;;;632.57;588.80;;;13.10;36.10;;;;;;4973658;28;20456;-70
2022/10/20 01:29:15;;;;;;;425.73;393.63;;;13.10;36.60;;;;;;4976508;28;20441;-71
2022/10/20 01:31:58;;;;;;;534.97;503.97;;;13.10;36.00;;;;;;4976250;28;20420;-71
2022/10/20 01:34:45;;;;;;;379.13;355.87;;;13.20;35.80;;;;;;4976442;28;20474;-70
2022/10/20 01:37:29;;;;;;;622.43;577.93;;;13.20;36.30;;;;;;4976404;28;20420;-70
2022/10/20 01:40:05;;;;;;;392.60;366.60;;;13.20;35.80;;;;;;4975686;28;20440;-70
2022/10/20 01:42:30;;;;;;;729.87;672.80;;;13.20;35.50;;;;;;4976139;28;20435;-70
2022/10/20 01:45:01;;;;;;;331.10;309.83;;;13.30;34.90;;;;;;4976473;28;20427;-70
2022/10/20 01:47:28;;;;;;;576.67;533.90;;;13.30;35.20;;;;;;4976355;28;20565;-70
2022/10/20 01:49:55;;;;;;;334.30;311.63;;;13.30;34.80;;;;;;4998544;23;20492;-69
2022/10/20 01:52:23;;;;;;;466.00;437.93;;;13.30;35.00;;;;;;4975501;28;20490;-70
2022/10/20 01:54:49;;;;;;;417.53;391.17;;;13.30;34.70;;;;;;4975867;28;20782;-70
2022/10/20 01:57:44;;;;;;;552.63;512.07;;;13.40;34.80;;;;;;4974855;28;20426;-70
2022/10/20 02:00:13;;;;;;;588.27;548.17;;;13.40;34.70;;;;;;4974560;28;20248;-70
2022/10/20 02:02:49;;;;;;;522.30;484.43;;;13.40;33.90;;;;;;4974354;28;20775;-70
2022/10/20 02:05:32;;;;;;;575.63;531.33;;;13.40;34.00;;;;;;4975575;28;20467;-70
2022/10/20 02:08:36;;;;;;;568.63;529.93;;;13.30;34.10;;;;;;4975552;28;20418;-70
2022/10/20 02:11:04;;;;;;;650.83;602.17;;;13.30;34.30;;;;;;4975398;28;20685;-70
2022/10/20 02:13:31;;;;;;;581.13;539.40;;;13.30;34.20;;;;;;4975419;28;20450;-71
2022/10/20 02:16:00;;;;;;;628.20;583.30;;;13.20;35.10;;;;;;4975421;28;20423;-70
2022/10/20 02:18:30;;;;;;;573.53;530.80;;;13.30;34.40;;;;;;4974088;28;20439;-70
2022/10/20 02:20:59;;;;;;;569.63;527.17;;;13.20;34.70;;;;;;4975162;28;20486;-69
2022/10/20 02:23:25;;;;;;;274.97;253.80;;;13.20;35.20;;;;;;4975371;28;20414;-70
2022/10/20 02:25:53;;;;;;;373.87;347.07;;;13.20;35.10;;;;;;4975443;28;20834;-69
2022/10/20 02:28:20;;;;;;;520.00;483.00;;;13.20;35.50;;;;;;4975019;28;20420;-70
2022/10/20 02:30:46;;;;;;;613.53;567.53;;;13.10;36.20;;;;;;4973827;28;20423;-70
2022/10/20 02:33:13;;;;;;;634.53;588.17;;;13.10;36.50;;;;;;4975140;28;20424;-70
2022/10/20 02:35:47;;;;;;;412.27;384.20;;;13.10;35.80;;;;;;4973844;28;20424;-70
2022/10/20 02:38:12;;;;;;;614.57;570.03;;;13.10;36.00;;;;;;4973747;28;20460;-70
2022/10/20 02:40:38;;;;;;;636.90;590.80;;;13.10;35.50;;;;;;4975076;28;20444;-70
2022/10/20 02:43:03;;;;;;;224.63;208.97;;;13.10;36.20;;;;;;4974959;28;20268;-70
2022/10/20 02:45:29;;;;;;;415.20;388.90;;;13.10;36.40;;;;;;4974779;28;20250;-70
2022/10/20 02:47:54;;;;;;;665.50;619.60;;;13.10;36.90;;;;;;4974838;28;20177;-70
2022/10/20 02:50:20;;;;;;;563.60;524.87;;;13.00;36.10;;;;;;4974882;28;20664;-70
2022/10/20 02:52:45;;;;;;;519.67;483.33;;;13.00;36.20;;;;;;4973488;28;20205;-70
2022/10/20 02:55:11;;;;;;;613.23;565.67;;;13.00;36.20;;;;;;4974937;28;20191;-70
2022/10/20 02:57:37;;;;;;;444.57;413.17;;;13.00;36.70;;;;;;4974678;28;20184;-70
2022/10/20 03:00:04;;;;;;;503.03;470.83;;;12.90;37.00;;;;;;4973456;28;20232;-70
2022/10/20 03:02:29;;;;;;;425.53;398.27;;;13.00;36.70;;;;;;4974454;28;20189;-70
2022/10/20 03:04:55;;;;;;;646.60;600.73;;;13.00;36.60;;;;;;4974342;28;20416;-70
2022/10/20 03:07:20;;;;;;;486.67;455.37;;;13.00;36.40;;;;;;4973117;28;20180;-70
2022/10/20 03:09:46;;;;;;;506.63;471.47;;;13.00;36.90;;;;;;4973545;28;20197;-70
2022/10/20 03:12:12;;;;;;;403.33;376.00;;;13.00;36.80;;;;;;4974051;28;20176;-70
2022/10/20 03:14:37;;;;;;;542.57;505.47;;;12.90;36.90;;;;;;4974538;28;20180;-70
2022/10/20 03:17:03;;;;;;;496.37;464.57;;;12.90;37.10;;;;;;4974235;28;20655;-70
2022/10/20 03:19:28;;;;;;;316.17;295.33;;;12.80;37.30;;;;;;4974111;28;20200;-70
2022/10/20 03:21:54;;;;;;;518.33;481.80;;;12.80;37.80;;;;;;4973765;28;20173;-71
2022/10/20 03:24:19;;;;;;;513.63;479.80;;;12.90;37.30;;;;;;4972935;28;20188;-71
2022/10/20 03:26:45;;;;;;;577.30;537.80;;;12.90;37.00;;;;;;4974052;28;20259;-71
2022/10/20 03:29:10;;;;;;;546.43;509.87;;;12.90;37.20;;;;;;4974004;28;20200;-68
2022/10/20 03:31:36;;;;;;;565.53;525.00;;;12.80;37.30;;;;;;4974283;28;20177;-71
2022/10/20 03:34:02;;;;;;;254.93;237.53;;;12.80;37.30;;;;;;4972774;28;20217;-71
2022/10/20 03:36:27;;;;;;;604.37;561.30;;;12.90;37.10;;;;;;4973913;28;20193;-71
2022/10/20 03:38:53;;;;;;;500.17;468.50;;;12.90;36.90;;;;;;4973867;28;20208;-71
2022/10/20 03:41:18;;;;;;;803.33;743.13;;;12.90;37.00;;;;;;4973815;28;20189;-71
2022/10/20 03:43:44;;;;;;;626.20;580.83;;;12.90;36.90;;;;;;4972924;28;20614;-70
2022/10/20 03:46:10;;;;;;;265.00;246.87;;;12.90;36.70;;;;;;4973873;28;20216;-70
2022/10/20 03:48:37;;;;;;;379.87;357.30;;;12.90;36.90;;;;;;4973091;28;20240;-70
2022/10/20 03:51:03;;;;;;;591.53;547.70;;;12.80;37.70;;;;;;4973347;28;20409;-70
2022/10/20 03:53:30;;;;;;;454.60;423.70;;;12.80;37.40;;;;;;4972328;28;20484;-70
2022/10/20 03:55:55;;;;;;;312.10;293.27;;;12.80;37.60;;;;;;4973890;28;20433;-70
2022/10/20 03:58:21;;;;;;;622.30;577.57;;;12.80;37.70;;;;;;4972603;28;20777;-70
2022/10/20 04:00:47;;;;;;;568.63;528.93;;;12.80;37.30;;;;;;4973322;28;20643;-70
2022/10/20 04:03:13;;;;;;;446.03;416.53;;;12.80;37.20;;;;;;4973541;28;20252;-70
2022/10/20 04:05:39;;;;;;;609.90;567.77;;;12.80;37.40;;;;;;4973240;28;20472;-71
2022/10/20 04:08:04;;;;;;;452.30;421.40;;;12.90;37.50;;;;;;4973550;28;20208;-71
2022/10/20 04:10:30;;;;;;;417.33;392.37;;;12.80;37.90;;;;;;4972197;28;20467;-71
2022/10/20 04:13:00;;;;;;;623.87;578.23;;;12.90;36.90;;;;;;4973621;28;20179;-71
2022/10/20 04:15:26;;;;;;;456.83;423.67;;;12.90;37.00;;;;;;4973382;28;20181;-71
2022/10/20 04:17:51;;;;;;;502.93;471.17;;;12.90;37.40;;;;;;4973390;28;20963;-71
2022/10/20 04:20:17;;;;;;;519.53;482.73;;;13.00;36.80;;;;;;4973547;28;20442;-71
2022/10/20 04:22:43;;;;;;;302.63;281.27;;;12.90;36.90;;;;;;4971775;28;20189;-71
2022/10/20 04:25:10;;;;;;;716.53;666.37;;;13.00;36.70;;;;;;4973174;28;20430;-71
2022/10/20 04:27:37;;;;;;;650.60;602.03;;;12.90;36.20;;;;;;4973396;28;20177;-71
2022/10/20 04:30:03;;;;;;;382.33;354.90;;;12.90;36.90;;;;;;4972923;28;20447;-71
2022/10/20 04:32:29;;;;;;;492.10;458.37;;;12.90;37.40;;;;;;4973655;28;20956;-71
2022/10/20 04:34:54;;;;;;;680.77;634.17;;;12.90;36.70;;;;;;4972969;28;20424;-71
2022/10/20 04:37:20;;;;;;;491.07;458.63;;;12.90;36.60;;;;;;4973568;28;20210;-71
2022/10/20 04:39:45;;;;;;;653.80;603.93;;;12.90;36.90;;;;;;4973092;28;20280;-71
2022/10/20 04:42:11;;;;;;;490.60;458.23;;;12.90;36.50;;;;;;4973160;28;20208;-70
2022/10/20 04:44:36;;;;;;;575.70;533.70;;;12.90;36.70;;;;;;4973350;28;20583;-71
2022/10/20 04:47:02;;;;;;;555.17;515.53;;;12.90;36.80;;;;;;4971628;28;20686;-71
2022/10/20 04:49:27;;;;;;;530.67;496.50;;;12.90;36.80;;;;;;4972753;28;20208;-70
2022/10/20 04:51:53;;;;;;;483.47;454.33;;;12.90;36.30;;;;;;4972550;28;20651;-71
2022/10/20 04:54:18;;;;;;;525.73;492.23;;;13.00;36.30;;;;;;4972552;28;20211;-70
2022/10/20 04:56:44;;;;;;;355.93;331.60;;;13.00;36.10;;;;;;4972706;28;20187;-70
2022/10/20 04:59:09;;;;;;;329.57;308.33;;;12.90;36.80;;;;;;4972927;28;20197;-70
2022/10/20 05:01:35;;;;;;;657.13;610.13;;;13.00;36.80;;;;;;4974782;28;20256;-70
2022/10/20 05:04:00;;;;;;;471.97;441.30;;;13.00;36.00;;;;;;4976302;28;20179;-70
2022/10/20 05:06:29;;;;;;;423.03;396.10;;;13.00;36.00;;;;;;4976368;28;20552;-70
2022/10/20 05:09:00;;;;;;;527.47;491.90;;;13.00;36.10;;;;;;4976363;28;20197;-70
2022/10/20 05:11:28;;;;;;;574.00;533.43;;;13.00;36.10;;;;;;4976012;28;20503;-70
2022/10/20 05:13:54;;;;;;;598.80;554.57;;;12.90;36.80;;;;;;4976236;28;20413;-70
2022/10/20 05:16:20;;;;;;;527.63;491.40;;;12.90;36.20;;;;;;4974767;28;20449;-70
2022/10/20 05:18:47;;;;;;;437.00;406.73;;;12.80;36.40;;;;;;4975780;28;20440;-70
2022/10/20 05:21:18;;;;;;;564.07;524.50;;;12.90;36.90;;;;;;4975799;28;20427;-70
2022/10/20 05:23:44;;;;;;;597.17;555.83;;;12.90;35.90;;;;;;4974586;28;20428;-71
2022/10/20 05:26:13;;;;;;;566.70;528.73;;;12.80;36.30;;;;;;4975962;28;20456;-70
2022/10/20 05:28:41;;;;;;;582.13;539.40;;;12.80;36.30;;;;;;4976058;28;20439;-70
2022/10/20 05:31:08;;;;;;;479.47;447.60;;;12.90;36.30;;;;;;4975569;28;20412;-70
2022/10/20 05:33:34;;;;;;;612.93;566.90;;;12.80;37.00;;;;;;4975857;28;20448;-70
2022/10/20 05:36:05;;;;;;;520.67;484.40;;;12.80;36.20;;;;;;4974643;28;20423;-70
2022/10/20 05:38:31;;;;;;;503.57;468.73;;;12.80;36.00;;;;;;4975933;28;20835;-70
2022/10/20 05:41:08;;;;;;;395.27;369.23;;;12.80;36.40;;;;;;4975634;28;20478;-70
2022/10/20 05:43:34;;;;;;;422.83;394.50;;;12.80;36.20;;;;;;4975814;28;20187;-69
2022/10/20 05:45:59;;;;;;;519.80;483.23;;;12.90;36.00;;;;;;4974512;28;20464;-69
2022/10/20 05:48:25;;;;;;;527.53;491.67;;;12.80;35.70;;;;;;4975808;28;20591;-70
2022/10/20 05:50:50;;;;;;;341.90;321.03;;;12.90;35.60;;;;;;4974245;28;20189;-70
2022/10/20 05:53:16;;;;;;;498.13;465.70;;;12.90;35.90;;;;;;4974331;28;20191;-71
2022/10/20 05:55:41;;;;;;;488.73;453.73;;;12.90;35.40;;;;;;4974364;28;20587;-70
2022/10/20 05:58:07;;;;;;;508.53;473.57;;;12.90;35.80;;;;;;4975494;28;20181;-71
2022/10/20 06:00:40;;;;;;;569.53;530.60;;;12.90;34.90;;;;;;4974228;28;20227;-71
2022/10/20 06:03:08;;;;;;;642.37;594.70;;;12.90;34.90;;;;;;4975169;28;20205;-71
2022/10/20 06:05:34;;;;;;;346.00;321.87;;;13.00;34.50;;;;;;4975408;28;20459;-70
2022/10/20 06:07:59;;;;;;;506.83;470.27;;;13.00;34.80;;;;;;4975855;28;20441;-70
2022/10/20 06:10:25;;;;;;;535.43;494.70;;;13.10;34.00;;;;;;4975210;28;20196;-70
2022/10/20 06:12:50;;;;;;;446.17;418.33;;;13.10;34.10;;;;;;4974719;28;20176;-71
2022/10/20 06:15:16;;;;;;;512.30;476.43;;;13.10;33.80;;;;;;4973907;28;20184;-71
2022/10/20 06:17:42;;;;;;;526.63;490.37;;;13.10;33.70;;;;;;4975238;28;20190;-70
2022/10/20 06:20:07;;;;;;;634.00;588.57;;;13.10;33.70;;;;;;4975104;28;20750;-70
2022/10/20 06:22:33;;;;;;;574.27;530.70;;;13.10;33.70;;;;;;4974945;28;20662;-70
2022/10/20 06:24:58;;;;;;;295.97;273.77;;;13.10;33.70;;;;;;4974184;28;20434;-71
2022/10/20 06:27:24;;;;;;;410.07;384.30;;;13.20;33.80;;;;;;4974795;28;20184;-70
2022/10/20 06:29:50;;;;;;;437.23;404.23;;;13.30;33.90;;;;;;4974824;28;20201;-70
2022/10/20 06:32:17;;;;;;;516.00;480.00;;;13.40;33.10;;;;;;4974630;28;20177;-70
2022/10/20 06:34:43;;;;;;;428.20;399.27;;;13.40;32.40;;;;;;4974874;28;20746;-70
2022/10/20 06:37:09;;;;;;;457.77;426.07;;;13.40;32.30;;;;;;4974824;28;20459;-70
2022/10/20 06:39:35;;;;;;;656.73;603.60;;;13.60;31.90;;;;;;4974618;28;20819;-70
2022/10/20 06:42:04;;;;;;;668.90;615.43;;;13.60;31.20;;;;;;4974736;28;20420;-70
2022/10/20 06:44:29;;;;;;;510.00;473.93;;;13.60;31.40;;;;;;4974817;28;20949;-70
2022/10/20 06:46:55;;;;;;;588.10;544.07;;;13.70;30.70;;;;;;4973243;28;20506;-70
2022/10/20 06:49:21;;;;;;;493.70;457.63;;;13.70;30.60;;;;;;4973097;28;20218;-70
2022/10/20 06:51:46;;;;;;;678.90;626.77;;;13.80;30.40;;;;;;4973057;28;20186;-70
2022/10/20 06:54:12;;;;;;;495.93;461.67;;;13.90;30.00;;;;;;4974511;28;20239;-71
2022/10/20 06:56:39;;;;;;;472.23;440.33;;;13.90;30.50;;;;;;4973024;28;20196;-71
2022/10/20 06:59:04;;;;;;;550.83;511.20;;;13.90;29.80;;;;;;4974256;28;20205;-70
2022/10/20 07:01:35;;;;;;;311.40;290.70;;;14.00;29.90;;;;;;4972771;28;20774;-70
2022/10/20 07:04:04;;;;;;;540.27;503.80;;;14.10;29.50;;;;;;4974309;28;20176;-70
2022/10/20 07:06:35;;;;;;;701.10;643.50;;;14.20;29.40;;;;;;4972868;28;20833;-70
2022/10/20 07:09:03;;;;;;;608.37;558.40;;;14.10;29.30;;;;;;4972710;28;20454;-71
2022/10/20 07:11:30;;;;;;;485.80;448.37;;;14.10;29.10;;;;;;4973862;28;20833;-71
2022/10/20 07:14:00;;;;;;;574.97;532.17;;;14.10;29.00;;;;;;4974405;28;20423;-70
2022/10/20 07:16:29;;;;;;;400.47;372.57;;;14.00;29.40;;;;;;4974172;28;20425;-70
2022/10/20 07:18:56;;;;;;;466.73;431.47;;;14.00;29.50;;;;;;4973956;28;20438;-71
2022/10/20 07:21:25;;;;;;;518.00;478.40;;;14.20;29.70;;;;;;4973625;28;20455;-70
2022/10/20 07:23:52;;;;;;;494.77;457.87;;;14.30;29.10;;;;;;4973346;28;20425;-70
2022/10/20 07:26:21;;;;;;;425.80;393.20;;;14.40;28.30;;;;;;4973710;28;20468;-70
2022/10/20 07:28:50;;;;;;;310.83;288.10;;;14.50;28.00;;;;;;4973694;28;20442;-70
2022/10/20 07:31:21;;;;;;;827.73;759.87;;;14.50;27.80;;;;;;4974823;28;20490;-70
2022/10/20 07:33:48;;;;;;;580.67;536.57;;;14.50;27.50;;;;;;4972489;28;20428;-70
2022/10/20 07:36:15;;;;;;;643.63;593.37;;;14.60;27.70;;;;;;4973616;28;20428;-70
2022/10/20 07:38:41;;;;;;;562.10;520.53;;;14.70;26.90;;;;;;4973838;28;20447;-70
2022/10/20 07:41:07;;;;;;;650.70;597.43;;;14.80;26.60;;;;;;4973393;28;20421;-70
2022/10/20 07:43:34;;;;;;;527.47;486.47;;;14.70;26.70;;;;;;4973713;28;20416;-70
2022/10/20 07:45:59;;;;;;;811.57;744.27;;;14.70;26.50;;;;;;4973559;28;20459;-71
2022/10/20 07:48:25;;;;;;;407.60;376.53;;;14.70;26.00;;;;;;4973676;28;20985;-71
2022/10/20 07:50:51;;;;;;;356.97;328.50;;;14.80;26.70;;;;;;4974124;28;20162;-71
2022/10/20 07:53:16;;;;;;;507.20;466.13;;;15.00;26.00;;;;;;4973452;28;20235;-71
2022/10/20 07:55:42;;;;;;;483.07;447.67;;;15.10;26.10;;;;;;4973347;28;20240;-70
2022/10/20 07:58:08;;;;;;;567.43;524.23;;;15.40;25.50;;;;;;4974571;28;20541;-71
2022/10/20 08:00:34;;;;;;;650.47;594.30;;;15.70;24.50;;;;;;4973365;28;20209;-71
2022/10/20 08:02:59;;;;;;;674.60;616.17;;;15.90;23.60;;;;;;4973421;28;20413;-70
2022/10/20 08:05:25;;;;;;;870.80;796.87;;;16.00;23.60;;;;;;4973339;28;20201;-71
2022/10/20 08:07:51;;;;;;;712.63;658.67;;;16.20;22.60;;;;;;4973654;28;20188;-71
2022/10/20 08:10:16;;;;;;;805.90;735.80;;;16.30;22.20;;;;;;4973393;28;20207;-71
2022/10/20 08:12:42;;;;;;;603.13;549.70;;;16.40;21.80;;;;;;4971890;28;20260;-71
2022/10/20 08:15:08;;;;;;;576.90;532.87;;;16.50;21.80;;;;;;4973146;28;20181;-71
2022/10/20 08:17:34;;;;;;;626.17;576.80;;;16.50;21.20;;;;;;4973292;28;20204;-71
2022/10/20 08:19:59;;;;;;;945.73;858.40;;;16.50;21.30;;;;;;4973177;28;20209;-71
2022/10/20 08:22:25;;;;;;;844.37;771.00;;;16.50;21.40;;;;;;4974690;28;20941;-71
2022/10/20 08:24:51;;;;;;;832.83;762.30;;;16.40;21.80;;;;;;4971977;28;20616;-71
2022/10/20 08:27:16;;;;;;;825.67;755.93;;;16.40;21.90;;;;;;4971764;28;20209;-70
2022/10/20 08:29:42;;;;;;;896.17;815.60;;;16.40;21.50;;;;;;4972841;28;20204;-71
2022/10/20 08:32:07;;;;;;;713.37;650.40;;;16.50;22.60;;;;;;4972739;28;20209;-70
2022/10/20 08:34:33;;;;;;;716.23;655.90;;;16.60;21.90;;;;;;4973566;28;20203;-70
2022/10/20 08:36:59;;;;;;;611.40;557.57;;;16.70;21.10;;;;;;4976913;28;20185;-71
2022/10/20 08:39:24;;;;;;;677.50;605.70;;;16.80;21.00;;;;;;4976801;28;20251;-71
2022/10/20 08:41:51;;;;;;;674.93;616.43;;;16.90;20.70;;;;;;4977067;28;20230;-71
2022/10/20 08:44:26;;;;;;;832.47;759.03;;;16.90;20.50;;;;;;4976797;28;20185;-71
2022/10/20 08:46:52;;;;;;;466.23;422.70;;;16.90;20.70;;;;;;4975309;28;20464;-71
2022/10/20 08:49:30;;;;;;;714.33;652.83;;;17.00;20.20;;;;;;4976524;28;20510;-70
2022/10/20 08:51:57;;;;;;;656.73;599.63;;;17.20;19.80;;;;;;4976507;28;20516;-71
2022/10/20 08:54:23;;;;;;;512.40;460.83;;;17.40;19.10;;;;;;4975315;28;20483;-71
2022/10/20 08:56:49;;;;;;;730.13;576.03;;;17.60;19.30;;;;;;4976607;28;20562;-71
2022/10/20 08:59:20;;;;;;;908.30;713.33;;;17.80;18.70;;;;;;4975205;28;21021;-71
2022/10/20 09:01:46;;;;;;;648.13;595.87;;;17.80;18.50;;;;;;4976233;28;20264;-71
2022/10/20 09:04:14;;;;;;;397.83;362.57;;;17.80;18.30;;;;;;4976502;28;20479;-71
2022/10/20 09:06:43;;;;;;;594.10;536.93;;;18.10;18.30;;;;;;4976275;28;20256;-71
2022/10/20 09:09:18;;;;;;;1267.67;958.90;;;18.30;17.40;;;;;;4975264;28;20851;-70
2022/10/20 09:11:44;;;;;;;820.33;736.73;;;18.50;17.00;;;;;;4976015;28;20416;-71
2022/10/20 09:14:11;;;;;;;716.90;641.23;;;18.50;16.30;;;;;;4976247;28;20408;-71
2022/10/20 09:16:38;;;;;;;883.37;733.77;;;18.40;16.70;;;;;;4974961;28;20476;-70
2022/10/20 09:19:09;;;;;;;725.43;655.13;;;18.30;16.80;;;;;;4976128;28;20444;-71
2022/10/20 09:21:37;;;;;;;745.70;666.97;;;18.30;16.30;;;;;;4976103;28;20421;-70
2022/10/20 09:24:04;;;;;;;940.30;744.90;;;18.20;16.60;;;;;;4976163;28;20832;-71
2022/10/20 09:26:30;;;;;;;557.40;506.70;;;18.40;17.20;;;;;;4974625;28;20801;-71
2022/10/20 09:29:02;;;;;;;807.80;599.63;;;18.50;16.80;;;;;;4976029;28;20469;-71
2022/10/20 09:31:34;;;;;;;1153.10;810.13;;;18.70;16.20;;;;;;4974567;28;20181;-71
2022/10/20 09:34:00;;;;;;;1073.60;846.87;;;18.90;16.20;;;;;;4975947;28;20408;-71
2022/10/20 09:36:35;;;;;;;682.07;561.10;;;19.10;15.90;;;;;;4974902;28;20515;-71
2022/10/20 09:39:01;;;;;;;1022.70;868.93;;;19.00;15.90;;;;;;4975808;28;20432;-71
2022/10/20 09:41:30;;;;;;;859.97;686.07;;;19.10;15.40;;;;;;4975717;28;20471;-71
2022/10/20 09:44:03;;;;;;;1713.83;999.90;;;19.20;15.40;;;;;;4975722;28;20417;-71
2022/10/20 09:46:38;;;;;;;1685.67;999.90;;;19.30;15.20;;;;;;4975147;28;20468;-71
2022/10/20 09:49:06;;;;;;;1472.10;951.73;;;19.40;15.00;;;;;;4975569;28;20456;-71
2022/10/20 09:51:32;;;;;;;802.07;649.83;;;19.60;14.80;;;;;;4974410;28;20540;-71
2022/10/20 09:54:03;;;;;;;778.57;655.60;;;19.80;14.40;;;;;;4975744;28;20427;-71
2022/10/20 09:56:32;;;;;;;932.97;849.40;;;19.70;14.00;;;;;;4975494;28;20433;-71
2022/10/20 09:59:00;;;;;;;847.40;729.93;;;19.50;14.10;;;;;;4975342;28;20539;-71
2022/10/20 10:01:26;;;;;;;680.60;610.50;;;19.20;15.10;;;;;;4975226;28;20460;-71
2022/10/20 10:03:58;;;;;;;909.27;744.40;;;19.10;15.80;;;;;;4975264;28;20914;-71
2022/10/20 10:06:36;;;;;;;1415.37;968.07;;;19.20;15.60;;;;;;4974002;28;20476;-71
2022/10/20 10:09:33;;;;;;;1394.93;963.27;;;19.30;14.70;;;;;;4975604;28;20425;-71
2022/10/20 10:12:04;;;;;;;1338.37;898.23;;;19.40;15.20;;;;;;4975087;28;20933;-71
2022/10/20 10:14:32;;;;;;;695.03;624.20;;;19.60;14.80;;;;;;4975218;28;20409;-71
2022/10/20 10:16:58;;;;;;;1848.43;999.90;;;19.90;15.40;;;;;;4975330;28;20421;-71
2022/10/20 10:19:27;;;;;;;1572.23;981.90;;;20.00;14.00;;;;;;4973854;28;20445;-71
2022/10/20 10:21:56;;;;;;;1224.70;895.67;;;20.20;14.10;;;;;;4973566;28;20465;-71
2022/10/20 10:24:28;;;;;;;822.93;656.47;;;19.80;14.20;;;;;;4973722;28;20436;-71
2022/10/20 10:26:55;;;;;;;1243.40;924.10;;;20.00;14.10;;;;;;4974769;28;20500;-71
2022/10/20 10:29:25;;;;;;;576.40;526.23;;;20.20;13.70;;;;;;4974863;28;20433;-71
2022/10/20 10:31:57;;;;;;;1297.80;893.00;;;20.40;13.50;;;;;;4974788;28;20416;-69
2022/10/20 10:34:41;;;;;;;1275.13;903.57;;;20.60;12.50;;;;;;4975021;28;20416;-71
2022/10/20 10:37:11;;;;;;;816.63;718.40;;;20.60;12.50;;;;;;4974879;28;20417;-71
2022/10/20 10:39:37;;;;;;;1055.93;843.30;;;20.70;12.90;;;;;;4974601;28;20908;-71
2022/10/20 10:42:35;;;;;;;1009.97;783.90;;;20.70;12.60;;;;;;4974419;28;20500;-71
2022/10/20 10:45:34;;;;;;;1125.47;837.43;;;20.80;12.70;;;;;;4972729;28;20197;-72
2022/10/20 10:48:23;;;;;;;822.90;667.00;;;20.60;12.50;;;;;;4974594;28;20914;-71
2022/10/20 10:51:20;;;;;;;1188.90;903.80;;;20.70;13.20;;;;;;4968668;28;20433;-71
2022/10/20 10:54:23;;;;;;;1662.93;999.90;;;20.60;12.50;;;;;;4974391;28;20409;-71
2022/10/20 10:56:59;;;;;;;699.13;628.07;;;20.60;13.00;;;;;;4973089;28;20834;-71
2022/10/20 10:59:33;;;;;;;1379.53;916.73;;;20.30;13.40;;;;;;4972068;28;20507;-70
2022/10/20 11:02:18;;;;;;;1096.80;912.10;;;20.40;14.00;;;;;;4974061;28;20407;-70
2022/10/20 11:04:57;;;;;;;686.97;619.40;;;20.30;13.60;;;;;;4974202;28;20420;-70
2022/10/20 11:07:33;;;;;;;669.00;591.03;;;20.30;13.70;;;;;;4972784;28;20472;-70
2022/10/20 11:10:14;;;;;;;642.23;579.53;;;20.20;13.80;;;;;;4974166;28;20770;-70
2022/10/20 11:13:07;;;;;;;1184.17;857.20;;;20.00;14.20;;;;;;4973786;28;20483;-70
2022/10/20 11:15:43;;;;;;;1470.07;971.83;;;20.00;14.60;;;;;;4972802;28;20435;-70
2022/10/20 11:18:30;;;;;;;696.60;640.17;;;19.90;15.10;;;;;;4972763;28;20435;-71
2022/10/20 11:21:06;;;;;;;617.23;556.00;;;20.10;14.30;;;;;;4973959;28;20428;-71
2022/10/20 11:23:59;;;;;;;950.10;766.00;;;20.10;14.50;;;;;;4974061;28;20499;-71
2022/10/20 11:26:36;;;;;;;1762.90;999.90;;;20.50;14.80;;;;;;4973801;28;20457;-71
2022/10/20 11:29:16;;;;;;;1344.53;914.37;;;20.90;13.80;;;;;;4973829;28;20548;-71
2022/10/20 11:32:05;;;;;;;1008.77;777.33;;;21.20;12.90;;;;;;4973941;28;20495;-71
2022/10/20 11:34:42;;;;;;;660.10;588.97;;;21.50;12.40;;;;;;4973797;28;20768;-71
2022/10/20 11:37:23;;;;;;;813.77;744.37;;;21.60;12.00;;;;;;4973930;28;20777;-71
2022/10/20 11:40:02;;;;;;;1131.13;818.77;;;21.60;11.90;;;;;;4972333;28;20475;-71
2022/10/20 11:42:52;;;;;;;1220.17;999.90;;;21.40;12.20;;;;;;4973539;28;20474;-71
2022/10/20 11:45:23;;;;;;;665.03;595.20;;;21.50;12.70;;;;;;4973725;28;20420;-71
2022/10/20 11:47:56;;;;;;;1308.23;885.10;;;21.60;12.40;;;;;;4972396;28;20428;-71
2022/10/20 11:50:22;;;;;;;704.53;634.47;;;21.70;12.00;;;;;;4973607;28;20467;-71
2022/10/20 11:53:08;;;;;;;737.07;663.73;;;21.60;11.10;;;;;;4973911;28;20413;-71
2022/10/20 11:55:58;;;;;;;623.90;563.97;;;21.50;11.50;;;;;;4973718;28;20440;-71
2022/10/20 11:58:29;;;;;;;1620.40;985.27;;;21.30;12.10;;;;;;4973194;28;20487;-71
2022/10/20 12:01:22;;;;;;;681.50;615.33;;;21.20;11.90;;;;;;4973272;28;20921;-71
2022/10/20 12:04:06;;;;;;;1298.57;959.67;;;20.90;12.50;;;;;;4972006;28;20424;-70
2022/10/20 12:06:54;;;;;;;1045.33;792.37;;;20.40;13.10;;;;;;4972010;28;20614;-70
2022/10/20 12:09:48;;;;;;;1071.43;799.93;;;20.20;14.20;;;;;;4971772;28;20437;-70
2022/10/20 12:12:51;;;;;;;1220.10;882.30;;;20.30;14.30;;;;;;4958080;28;20425;-70
2022/10/20 12:15:23;;;;;;;635.17;569.23;;;20.30;14.80;;;;;;4973130;28;20901;-70
2022/10/20 12:17:51;;;;;;;693.63;627.77;;;20.20;15.00;;;;;;4971890;28;20413;-70
2022/10/20 12:20:19;;;;;;;1321.53;939.60;;;20.40;14.50;;;;;;4973179;28;20432;-70